Sycamore, Alabama
Current Conditions -  °F | °C
As of 9:35 PM on Sunday 21 Dec 2014 (Local Time) from KSCD Reporting Station
Overcast Overcast  
Wind Chill: 50°   Ceiling: 1000
Heat Index: 50°   Visibility: 10mi
Dew Point: 48°   Wind: 6mph
Humidity: 90%   Direction: 120°ESE
Pressure: 30.07"   Gusts: NA
Location:  33.25°N, 86.2°W
Report Text: KSCD 220335Z AUTO 12005KT 10SM OVC010 10/09 A3007 RMK AO2 T01020087
Loading
Personal Weather Stations






























Interactive Weather Map New forecast layout! Learn more

10-Day Weather Forecast

Advertisements
Track Severe Weather on mobile